sensor_id;sensor_type;location;lat;lon;timestamp;P1;durP1;ratioP1;P2;durP2;ratioP2
78718;SDS011;68046;53.334;9.538;2023-11-18T15:27:30;27.17;;;11.93;;
78718;SDS011;68046;53.334;9.538;2023-11-18T15:29:55;28.50;;;13.80;;
78718;SDS011;68046;53.334;9.538;2023-11-18T15:32:21;27.08;;;12.38;;
78718;SDS011;68046;53.334;9.538;2023-11-18T15:34:46;28.92;;;12.50;;
78718;SDS011;68046;53.334;9.538;2023-11-18T15:37:11;31.20;;;13.85;;
78718;SDS011;68046;53.334;9.538;2023-11-18T15:39:37;25.42;;;12.35;;
78718;SDS011;68046;53.334;9.538;2023-11-18T15:42:02;29.35;;;12.40;;
78718;SDS011;68046;53.334;9.538;2023-11-18T15:44:30;26.17;;;12.23;;
78718;SDS011;68046;53.334;9.538;2023-11-18T15:46:55;29.23;;;11.88;;
78718;SDS011;68046;53.334;9.538;2023-11-18T15:49:20;29.15;;;12.52;;
78718;SDS011;68046;53.334;9.538;2023-11-18T15:51:46;31.00;;;13.60;;
78718;SDS011;68046;53.334;9.538;2023-11-18T15:54:11;29.75;;;12.73;;
78718;SDS011;68046;53.334;9.538;2023-11-18T15:56:37;32.38;;;13.63;;
78718;SDS011;68046;53.334;9.538;2023-11-18T15:59:02;31.83;;;12.52;;
78718;SDS011;68046;53.334;9.538;2023-11-18T16:01:29;28.92;;;13.75;;
78718;SDS011;68046;53.334;9.538;2023-11-18T16:03:54;33.40;;;12.80;;
78718;SDS011;68046;53.334;9.538;2023-11-18T16:06:20;32.55;;;13.13;;
78718;SDS011;68046;53.334;9.538;2023-11-18T16:08:45;32.25;;;13.43;;
78718;SDS011;68046;53.334;9.538;2023-11-18T16:11:11;38.05;;;12.35;;
78718;SDS011;68046;53.334;9.538;2023-11-18T16:13:36;37.67;;;13.52;;
78718;SDS011;68046;53.334;9.538;2023-11-18T16:16:01;35.03;;;12.93;;
78718;SDS011;68046;53.334;9.538;2023-11-18T16:18:28;30.55;;;12.60;;
78718;SDS011;68046;53.334;9.538;2023-11-18T16:20:54;28.30;;;13.13;;
78718;SDS011;68046;53.334;9.538;2023-11-18T16:23:19;37.35;;;14.23;;
78718;SDS011;68046;53.334;9.538;2023-11-18T16:25:45;40.80;;;14.73;;
78718;SDS011;68046;53.334;9.538;2023-11-18T16:28:10;37.00;;;13.80;;
78718;SDS011;68046;53.334;9.538;2023-11-18T16:30:36;37.47;;;13.45;;
78718;SDS011;68046;53.334;9.538;2023-11-18T16:33:01;34.55;;;13.85;;
78718;SDS011;68046;53.334;9.538;2023-11-18T16:35:28;33.95;;;13.98;;
78718;SDS011;68046;53.334;9.538;2023-11-18T16:37:54;38.38;;;13.88;;
78718;SDS011;68046;53.334;9.538;2023-11-18T16:40:19;43.65;;;15.93;;
78718;SDS011;68046;53.334;9.538;2023-11-18T16:42:45;36.33;;;14.23;;
78718;SDS011;68046;53.334;9.538;2023-11-18T16:45:12;37.97;;;14.95;;
78718;SDS011;68046;53.334;9.538;2023-11-18T16:47:38;38.88;;;14.90;;
78718;SDS011;68046;53.334;9.538;2023-11-18T16:50:04;38.90;;;16.38;;
78718;SDS011;68046;53.334;9.538;2023-11-18T16:52:31;34.78;;;13.40;;
78718;SDS011;68046;53.334;9.538;2023-11-18T16:54:57;35.90;;;14.50;;
78718;SDS011;68046;53.334;9.538;2023-11-18T16:57:22;36.92;;;14.38;;
78718;SDS011;68046;53.334;9.538;2023-11-18T16:59:48;38.50;;;13.90;;
78718;SDS011;68046;53.334;9.538;2023-11-18T17:02:13;38.25;;;14.23;;
78718;SDS011;68046;53.334;9.538;2023-11-18T17:04:39;35.00;;;14.45;;
78718;SDS011;68046;53.334;9.538;2023-11-18T17:07:04;31.33;;;13.23;;
78718;SDS011;68046;53.334;9.538;2023-11-18T17:09:31;33.88;;;14.02;;
78718;SDS011;68046;53.334;9.538;2023-11-18T17:11:56;29.40;;;12.65;;
78718;SDS011;68046;53.334;9.538;2023-11-18T17:14:22;33.65;;;12.15;;
78718;SDS011;68046;53.334;9.538;2023-11-18T17:16:47;30.88;;;12.38;;
78718;SDS011;68046;53.334;9.538;2023-11-18T17:19:13;36.35;;;13.55;;
78718;SDS011;68046;53.334;9.538;2023-11-18T17:21:38;37.30;;;13.43;;
78718;SDS011;68046;53.334;9.538;2023-11-18T17:24:04;34.58;;;13.23;;
78718;SDS011;68046;53.334;9.538;2023-11-18T17:26:34;29.98;;;11.75;;
78718;SDS011;68046;53.334;9.538;2023-11-18T17:29:00;33.08;;;12.15;;
78718;SDS011;68046;53.334;9.538;2023-11-18T17:31:25;31.20;;;11.85;;
78718;SDS011;68046;53.334;9.538;2023-11-18T17:33:51;30.50;;;12.32;;
78718;SDS011;68046;53.334;9.538;2023-11-18T17:36:16;25.63;;;11.98;;
78718;SDS011;68046;53.334;9.538;2023-11-18T17:38:41;26.42;;;11.25;;
78718;SDS011;68046;53.334;9.538;2023-11-18T17:41:07;31.77;;;11.63;;
78718;SDS011;68046;53.334;9.538;2023-11-18T17:43:34;28.15;;;12.43;;
78718;SDS011;68046;53.334;9.538;2023-11-18T17:45:59;27.95;;;11.85;;
78718;SDS011;68046;53.334;9.538;2023-11-18T17:48:24;28.27;;;10.38;;
78718;SDS011;68046;53.334;9.538;2023-11-18T17:50:50;27.23;;;12.60;;
78718;SDS011;68046;53.334;9.538;2023-11-18T17:53:15;25.70;;;10.93;;
78718;SDS011;68046;53.334;9.538;2023-11-18T17:55:41;25.45;;;11.10;;
78718;SDS011;68046;53.334;9.538;2023-11-18T17:58:06;29.65;;;9.93;;
78718;SDS011;68046;53.334;9.538;2023-11-18T18:00:33;26.83;;;10.85;;
78718;SDS011;68046;53.334;9.538;2023-11-18T18:02:58;26.10;;;11.90;;
78718;SDS011;68046;53.334;9.538;2023-11-18T18:05:24;32.03;;;13.30;;
78718;SDS011;68046;53.334;9.538;2023-11-18T18:07:49;28.27;;;11.65;;
78718;SDS011;68046;53.334;9.538;2023-11-18T18:10:15;28.00;;;10.07;;
78718;SDS011;68046;53.334;9.538;2023-11-18T18:12:40;32.53;;;12.80;;
78718;SDS011;68046;53.334;9.538;2023-11-18T18:15:06;23.23;;;9.32;;
78718;SDS011;68046;53.334;9.538;2023-11-18T18:17:33;26.05;;;11.05;;
78718;SDS011;68046;53.334;9.538;2023-11-18T18:19:59;22.65;;;9.40;;
78718;SDS011;68046;53.334;9.538;2023-11-18T18:22:24;30.10;;;10.15;;
78718;SDS011;68046;53.334;9.538;2023-11-18T18:24:49;26.58;;;10.15;;
78718;SDS011;68046;53.334;9.538;2023-11-18T18:27:15;28.42;;;12.63;;
78718;SDS011;68046;53.334;9.538;2023-11-18T18:29:40;26.73;;;10.88;;
78718;SDS011;68046;53.334;9.538;2023-11-18T18:32:06;19.70;;;9.13;;
78718;SDS011;68046;53.334;9.538;2023-11-18T18:34:33;21.40;;;9.55;;
78718;SDS011;68046;53.334;9.538;2023-11-18T18:36:58;23.98;;;10.40;;
78718;SDS011;68046;53.334;9.538;2023-11-18T18:39:23;24.58;;;10.93;;
78718;SDS011;68046;53.334;9.538;2023-11-18T18:41:49;20.27;;;9.07;;
78718;SDS011;68046;53.334;9.538;2023-11-18T18:44:14;26.52;;;9.40;;
78718;SDS011;68046;53.334;9.538;2023-11-18T18:46:40;28.08;;;10.10;;
78718;SDS011;68046;53.334;9.538;2023-11-18T18:49:05;25.55;;;10.55;;
78718;SDS011;68046;53.334;9.538;2023-11-18T18:51:32;25.00;;;9.98;;
78718;SDS011;68046;53.334;9.538;2023-11-18T18:53:57;20.52;;;9.20;;
78718;SDS011;68046;53.334;9.538;2023-11-18T18:56:23;19.48;;;9.57;;
78718;SDS011;68046;53.334;9.538;2023-11-18T18:58:48;19.98;;;9.13;;
78718;SDS011;68046;53.334;9.538;2023-11-18T19:01:13;21.73;;;9.55;;
78718;SDS011;68046;53.334;9.538;2023-11-18T19:03:39;22.45;;;9.85;;
78718;SDS011;68046;53.334;9.538;2023-11-18T19:06:04;21.40;;;9.18;;
78718;SDS011;68046;53.334;9.538;2023-11-18T19:08:31;20.52;;;9.20;;
78718;SDS011;68046;53.334;9.538;2023-11-18T19:10:57;29.60;;;10.38;;
78718;SDS011;68046;53.334;9.538;2023-11-18T19:13:22;24.90;;;10.15;;
78718;SDS011;68046;53.334;9.538;2023-11-18T19:15:48;21.90;;;8.90;;
78718;SDS011;68046;53.334;9.538;2023-11-18T19:18:13;20.35;;;8.75;;
78718;SDS011;68046;53.334;9.538;2023-11-18T19:20:39;22.35;;;8.18;;
78718;SDS011;68046;53.334;9.538;2023-11-18T19:23:04;19.95;;;9.15;;
78718;SDS011;68046;53.334;9.538;2023-11-18T19:25:31;17.25;;;7.57;;
78718;SDS011;68046;53.334;9.538;2023-11-18T19:27:56;22.80;;;10.00;;
78718;SDS011;68046;53.334;9.538;2023-11-18T19:30:22;22.52;;;8.77;;
78718;SDS011;68046;53.334;9.538;2023-11-18T19:32:47;18.67;;;8.60;;
78718;SDS011;68046;53.334;9.538;2023-11-18T19:35:12;16.20;;;7.05;;
78718;SDS011;68046;53.334;9.538;2023-11-18T19:37:38;17.30;;;8.27;;
78718;SDS011;68046;53.334;9.538;2023-11-18T19:40:04;18.77;;;8.50;;
78718;SDS011;68046;53.334;9.538;2023-11-18T19:42:31;19.17;;;8.90;;
78718;SDS011;68046;53.334;9.538;2023-11-18T19:44:57;16.05;;;6.93;;
78718;SDS011;68046;53.334;9.538;2023-11-18T19:47:22;16.38;;;7.65;;
78718;SDS011;68046;53.334;9.538;2023-11-18T19:49:48;22.30;;;7.20;;
78718;SDS011;68046;53.334;9.538;2023-11-18T19:52:13;15.15;;;6.70;;
78718;SDS011;68046;53.334;9.538;2023-11-18T19:54:39;18.17;;;7.43;;
78718;SDS011;68046;53.334;9.538;2023-11-18T19:57:04;12.95;;;6.50;;
78718;SDS011;68046;53.334;9.538;2023-11-18T19:59:31;13.38;;;6.43;;
78718;SDS011;68046;53.334;9.538;2023-11-18T20:01:57;13.48;;;6.28;;
78718;SDS011;68046;53.334;9.538;2023-11-18T20:04:22;15.85;;;6.63;;
78718;SDS011;68046;53.334;9.538;2023-11-18T20:06:48;14.05;;;6.63;;
78718;SDS011;68046;53.334;9.538;2023-11-18T20:09:13;14.73;;;6.57;;
78718;SDS011;68046;53.334;9.538;2023-11-18T20:11:46;14.15;;;6.78;;
78718;SDS011;68046;53.334;9.538;2023-11-18T20:14:12;13.68;;;5.88;;
78718;SDS011;68046;53.334;9.538;2023-11-18T20:16:39;13.55;;;6.13;;
78718;SDS011;68046;53.334;9.538;2023-11-18T20:19:05;12.95;;;6.22;;
78718;SDS011;68046;53.334;9.538;2023-11-18T20:21:30;13.65;;;6.45;;
78718;SDS011;68046;53.334;9.538;2023-11-18T20:23:56;11.32;;;6.05;;
78718;SDS011;68046;53.334;9.538;2023-11-18T20:26:21;17.15;;;6.15;;
78718;SDS011;68046;53.334;9.538;2023-11-18T20:28:47;10.13;;;5.57;;
78718;SDS011;68046;53.334;9.538;2023-11-18T20:31:12;10.73;;;5.07;;
78718;SDS011;68046;53.334;9.538;2023-11-18T20:33:39;11.38;;;5.22;;
78718;SDS011;68046;53.334;9.538;2023-11-18T20:36:05;10.93;;;5.22;;
78718;SDS011;68046;53.334;9.538;2023-11-18T20:38:31;13.13;;;5.32;;
78718;SDS011;68046;53.334;9.538;2023-11-18T20:40:56;9.20;;;4.90;;
78718;SDS011;68046;53.334;9.538;2023-11-18T20:43:22;10.23;;;4.72;;
78718;SDS011;68046;53.334;9.538;2023-11-18T20:45:47;10.00;;;5.25;;
78718;SDS011;68046;53.334;9.538;2023-11-18T20:48:13;10.95;;;5.50;;
78718;SDS011;68046;53.334;9.538;2023-11-18T20:50:39;8.48;;;4.65;;
78718;SDS011;68046;53.334;9.538;2023-11-18T20:53:05;10.75;;;4.85;;
78718;SDS011;68046;53.334;9.538;2023-11-18T20:55:30;8.57;;;4.30;;
78718;SDS011;68046;53.334;9.538;2023-11-18T20:57:56;8.32;;;4.43;;
78718;SDS011;68046;53.334;9.538;2023-11-18T21:00:21;9.75;;;4.22;;
78718;SDS011;68046;53.334;9.538;2023-11-18T21:02:47;6.80;;;3.78;;
78718;SDS011;68046;53.334;9.538;2023-11-18T21:05:12;8.23;;;4.60;;
78718;SDS011;68046;53.334;9.538;2023-11-18T21:07:39;11.60;;;4.68;;
78718;SDS011;68046;53.334;9.538;2023-11-18T21:10:05;7.30;;;3.85;;
78718;SDS011;68046;53.334;9.538;2023-11-18T21:12:31;13.95;;;4.88;;
78718;SDS011;68046;53.334;9.538;2023-11-18T21:14:56;6.28;;;3.42;;
78718;SDS011;68046;53.334;9.538;2023-11-18T21:17:22;6.57;;;3.35;;
78718;SDS011;68046;53.334;9.538;2023-11-18T21:19:47;6.30;;;3.35;;
78718;SDS011;68046;53.334;9.538;2023-11-18T21:22:12;7.10;;;3.72;;
78718;SDS011;68046;53.334;9.538;2023-11-18T21:24:39;6.57;;;3.60;;
78718;SDS011;68046;53.334;9.538;2023-11-18T21:27:05;6.22;;;3.22;;
78718;SDS011;68046;53.334;9.538;2023-11-18T21:29:30;6.82;;;3.58;;
78718;SDS011;68046;53.334;9.538;2023-11-18T21:31:55;8.77;;;3.58;;
78718;SDS011;68046;53.334;9.538;2023-11-18T21:34:21;6.22;;;3.20;;
78718;SDS011;68046;53.334;9.538;2023-11-18T21:36:46;5.00;;;2.58;;
78718;SDS011;68046;53.334;9.538;2023-11-18T21:39:12;5.90;;;3.00;;
78718;SDS011;68046;53.334;9.538;2023-11-18T21:41:38;5.30;;;2.50;;
78718;SDS011;68046;53.334;9.538;2023-11-18T21:44:04;6.07;;;2.53;;
78718;SDS011;68046;53.334;9.538;2023-11-18T21:46:29;6.18;;;2.70;;
78718;SDS011;68046;53.334;9.538;2023-11-18T21:48:55;5.13;;;2.85;;
78718;SDS011;68046;53.334;9.538;2023-11-18T21:51:20;6.75;;;2.78;;
78718;SDS011;68046;53.334;9.538;2023-11-18T21:53:46;8.98;;;2.83;;
78718;SDS011;68046;53.334;9.538;2023-11-18T21:56:11;6.05;;;3.08;;
78718;SDS011;68046;53.334;9.538;2023-11-18T21:58:38;5.40;;;3.05;;
78718;SDS011;68046;53.334;9.538;2023-11-18T22:01:03;5.72;;;3.00;;
78718;SDS011;68046;53.334;9.538;2023-11-18T22:03:29;4.63;;;2.58;;
78718;SDS011;68046;53.334;9.538;2023-11-18T22:05:54;7.00;;;3.17;;
78718;SDS011;68046;53.334;9.538;2023-11-18T22:08:20;4.45;;;2.55;;
78718;SDS011;68046;53.334;9.538;2023-11-18T22:10:45;4.57;;;2.75;;
78718;SDS011;68046;53.334;9.538;2023-11-18T22:13:11;5.70;;;3.08;;
78718;SDS011;68046;53.334;9.538;2023-11-18T22:15:38;7.13;;;3.03;;
78718;SDS011;68046;53.334;9.538;2023-11-18T22:18:03;5.10;;;2.95;;
78718;SDS011;68046;53.334;9.538;2023-11-18T22:20:29;5.57;;;2.92;;
78718;SDS011;68046;53.334;9.538;2023-11-18T22:22:54;4.07;;;2.53;;
78718;SDS011;68046;53.334;9.538;2023-11-18T22:25:19;6.32;;;2.63;;
78718;SDS011;68046;53.334;9.538;2023-11-18T22:27:45;5.68;;;3.15;;
78718;SDS011;68046;53.334;9.538;2023-11-18T22:30:10;5.55;;;2.70;;
78718;SDS011;68046;53.334;9.538;2023-11-18T22:32:38;4.65;;;2.78;;
78718;SDS011;68046;53.334;9.538;2023-11-18T22:35:04;4.10;;;2.45;;
78718;SDS011;68046;53.334;9.538;2023-11-18T22:37:29;5.18;;;2.30;;
78718;SDS011;68046;53.334;9.538;2023-11-18T22:39:55;6.93;;;1.95;;
78718;SDS011;68046;53.334;9.538;2023-11-18T22:42:20;4.07;;;2.50;;
78718;SDS011;68046;53.334;9.538;2023-11-18T22:44:46;5.82;;;2.85;;
78718;SDS011;68046;53.334;9.538;2023-11-18T22:47:11;4.82;;;2.90;;
78718;SDS011;68046;53.334;9.538;2023-11-18T22:49:38;3.88;;;2.53;;
78718;SDS011;68046;53.334;9.538;2023-11-18T22:52:04;6.35;;;2.60;;
78718;SDS011;68046;53.334;9.538;2023-11-18T22:54:30;4.18;;;2.60;;
78718;SDS011;68046;53.334;9.538;2023-11-18T22:56:55;6.60;;;2.30;;
78718;SDS011;68046;53.334;9.538;2023-11-18T22:59:20;4.35;;;2.67;;
78718;SDS011;68046;53.334;9.538;2023-11-18T23:01:46;5.97;;;3.25;;
78718;SDS011;68046;53.334;9.538;2023-11-18T23:04:11;5.05;;;2.72;;
78718;SDS011;68046;53.334;9.538;2023-11-18T23:06:38;3.92;;;2.25;;
78718;SDS011;68046;53.334;9.538;2023-11-18T23:09:04;7.07;;;3.28;;
78718;SDS011;68046;53.334;9.538;2023-11-18T23:11:29;4.57;;;2.53;;
78718;SDS011;68046;53.334;9.538;2023-11-18T23:13:55;4.50;;;2.17;;
78718;SDS011;68046;53.334;9.538;2023-11-18T23:16:20;3.80;;;2.15;;
78718;SDS011;68046;53.334;9.538;2023-11-18T23:18:46;5.47;;;2.58;;
78718;SDS011;68046;53.334;9.538;2023-11-18T23:21:11;4.03;;;2.20;;
78718;SDS011;68046;53.334;9.538;2023-11-18T23:23:40;3.88;;;2.38;;
78718;SDS011;68046;53.334;9.538;2023-11-18T23:26:06;3.53;;;2.10;;
78718;SDS011;68046;53.334;9.538;2023-11-18T23:28:31;4.13;;;2.38;;
78718;SDS011;68046;53.334;9.538;2023-11-18T23:30:57;4.57;;;2.25;;
78718;SDS011;68046;53.334;9.538;2023-11-18T23:33:22;4.68;;;2.35;;
78718;SDS011;68046;53.334;9.538;2023-11-18T23:35:48;4.82;;;2.63;;
78718;SDS011;68046;53.334;9.538;2023-11-18T23:38:13;4.97;;;2.53;;
78718;SDS011;68046;53.334;9.538;2023-11-18T23:40:40;3.72;;;2.50;;
78718;SDS011;68046;53.334;9.538;2023-11-18T23:43:05;4.93;;;2.63;;
78718;SDS011;68046;53.334;9.538;2023-11-18T23:45:31;3.20;;;2.03;;
78718;SDS011;68046;53.334;9.538;2023-11-18T23:47:56;3.90;;;2.45;;
78718;SDS011;68046;53.334;9.538;2023-11-18T23:50:21;4.07;;;2.72;;
78718;SDS011;68046;53.334;9.538;2023-11-18T23:52:47;4.22;;;2.55;;
78718;SDS011;68046;53.334;9.538;2023-11-18T23:55:12;5.05;;;2.78;;
78718;SDS011;68046;53.334;9.538;2023-11-18T23:57:39;4.18;;;2.38;;
